sensor_id;sensor_type;location;lat;lon;timestamp;temperature;humidity
63802;DHT22;49949;43.060;25.624;2023-07-24T00:01:59;20.80;99.90
63802;DHT22;49949;43.060;25.624;2023-07-24T00:04:25;20.80;99.90
63802;DHT22;49949;43.060;25.624;2023-07-24T00:06:51;20.70;99.90
63802;DHT22;49949;43.060;25.624;2023-07-24T00:09:16;20.70;99.90
63802;DHT22;49949;43.060;25.624;2023-07-24T00:11:42;20.60;99.90
63802;DHT22;49949;43.060;25.624;2023-07-24T00:14:08;20.60;99.90
63802;DHT22;49949;43.060;25.624;2023-07-24T00:16:33;20.60;99.90
63802;DHT22;49949;43.060;25.624;2023-07-24T00:18:59;20.60;99.90
63802;DHT22;49949;43.060;25.624;2023-07-24T00:21:25;20.50;99.90
63802;DHT22;49949;43.060;25.624;2023-07-24T00:23:50;20.50;99.90
63802;DHT22;49949;43.060;25.624;2023-07-24T00:26:16;20.40;99.90
63802;DHT22;49949;43.060;25.624;2023-07-24T00:28:42;20.40;99.90
63802;DHT22;49949;43.060;25.624;2023-07-24T00:31:07;20.40;99.90
63802;DHT22;49949;43.060;25.624;2023-07-24T00:33:33;20.30;99.90
63802;DHT22;49949;43.060;25.624;2023-07-24T00:35:59;20.30;99.90
63802;DHT22;49949;43.060;25.624;2023-07-24T00:38:25;20.30;99.90
63802;DHT22;49949;43.060;25.624;2023-07-24T00:40:51;20.20;99.90
63802;DHT22;49949;43.060;25.624;2023-07-24T00:43:16;20.10;99.90
63802;DHT22;49949;43.060;25.624;2023-07-24T00:45:43;20.10;99.90
63802;DHT22;49949;43.060;25.624;2023-07-24T00:48:10;20.10;99.90
63802;DHT22;49949;43.060;25.624;2023-07-24T00:50:36;20.10;99.90
63802;DHT22;49949;43.060;25.624;2023-07-24T00:53:02;20.10;99.90
63802;DHT22;49949;43.060;25.624;2023-07-24T00:55:29;20.10;99.90
63802;DHT22;49949;43.060;25.624;2023-07-24T00:57:57;20.10;99.90
63802;DHT22;49949;43.060;25.624;2023-07-24T01:00:23;20.10;99.90
63802;DHT22;49949;43.060;25.624;2023-07-24T01:02:49;20.10;99.90
63802;DHT22;49949;43.060;25.624;2023-07-24T01:05:16;20.10;99.90
63802;DHT22;49949;43.060;25.624;2023-07-24T01:07:42;20.00;99.90
63802;DHT22;49949;43.060;25.624;2023-07-24T01:10:08;20.00;99.90
63802;DHT22;49949;43.060;25.624;2023-07-24T01:15:38;20.00;99.90
63802;DHT22;49949;43.060;25.624;2023-07-24T01:18:08;19.90;99.90
63802;DHT22;49949;43.060;25.624;2023-07-24T01:20:37;20.00;99.90
63802;DHT22;49949;43.060;25.624;2023-07-24T01:26:07;20.00;99.90
63802;DHT22;49949;43.060;25.624;2023-07-24T01:28:33;19.90;99.90
63802;DHT22;49949;43.060;25.624;2023-07-24T01:30:59;20.00;99.90
63802;DHT22;49949;43.060;25.624;2023-07-24T01:33:25;19.90;99.90
63802;DHT22;49949;43.060;25.624;2023-07-24T01:35:54;19.90;99.90
63802;DHT22;49949;43.060;25.624;2023-07-24T01:38:21;19.80;99.90
63802;DHT22;49949;43.060;25.624;2023-07-24T01:40:48;19.70;99.90
63802;DHT22;49949;43.060;25.624;2023-07-24T01:43:14;19.60;99.90
63802;DHT22;49949;43.060;25.624;2023-07-24T01:45:40;19.60;99.90
63802;DHT22;49949;43.060;25.624;2023-07-24T01:48:06;19.50;99.90
63802;DHT22;49949;43.060;25.624;2023-07-24T01:50:32;19.50;99.90
63802;DHT22;49949;43.060;25.624;2023-07-24T01:52:58;19.50;99.90
63802;DHT22;49949;43.060;25.624;2023-07-24T01:55:24;19.50;99.90
63802;DHT22;49949;43.060;25.624;2023-07-24T01:57:49;19.50;99.90
63802;DHT22;49949;43.060;25.624;2023-07-24T02:00:15;19.50;99.90
63802;DHT22;49949;43.060;25.624;2023-07-24T02:02:41;19.50;99.90
63802;DHT22;49949;43.060;25.624;2023-07-24T02:05:07;19.40;99.90
63802;DHT22;49949;43.060;25.624;2023-07-24T02:07:33;19.40;99.90
63802;DHT22;49949;43.060;25.624;2023-07-24T02:09:59;19.50;99.90
63802;DHT22;49949;43.060;25.624;2023-07-24T02:12:25;19.40;99.90
63802;DHT22;49949;43.060;25.624;2023-07-24T02:14:50;19.40;99.90
63802;DHT22;49949;43.060;25.624;2023-07-24T02:17:17;19.40;99.90
63802;DHT22;49949;43.060;25.624;2023-07-24T02:19:43;19.40;99.90
63802;DHT22;49949;43.060;25.624;2023-07-24T02:22:09;19.40;99.90
63802;DHT22;49949;43.060;25.624;2023-07-24T02:24:35;19.40;99.90
63802;DHT22;49949;43.060;25.624;2023-07-24T02:27:01;19.40;99.90
63802;DHT22;49949;43.060;25.624;2023-07-24T02:29:27;19.40;99.90
63802;DHT22;49949;43.060;25.624;2023-07-24T02:31:57;19.40;99.90
63802;DHT22;49949;43.060;25.624;2023-07-24T02:34:23;19.40;99.90
63802;DHT22;49949;43.060;25.624;2023-07-24T02:36:52;19.30;99.90
63802;DHT22;49949;43.060;25.624;2023-07-24T02:39:19;19.30;99.90
63802;DHT22;49949;43.060;25.624;2023-07-24T02:41:45;19.30;99.90
63802;DHT22;49949;43.060;25.624;2023-07-24T02:44:11;19.30;99.90
63802;DHT22;49949;43.060;25.624;2023-07-24T02:46:37;19.30;99.90
63802;DHT22;49949;43.060;25.624;2023-07-24T02:49:03;19.30;99.90
63802;DHT22;49949;43.060;25.624;2023-07-24T02:51:28;19.30;99.90
63802;DHT22;49949;43.060;25.624;2023-07-24T02:53:54;19.20;99.90
63802;DHT22;49949;43.060;25.624;2023-07-24T02:56:20;19.20;99.90
63802;DHT22;49949;43.060;25.624;2023-07-24T02:58:46;19.20;99.90
63802;DHT22;49949;43.060;25.624;2023-07-24T03:01:12;19.10;99.90
63802;DHT22;49949;43.060;25.624;2023-07-24T03:03:40;19.20;99.90
63802;DHT22;49949;43.060;25.624;2023-07-24T03:06:06;19.20;99.90
63802;DHT22;49949;43.060;25.624;2023-07-24T03:08:32;19.20;99.90
63802;DHT22;49949;43.060;25.624;2023-07-24T03:10:57;19.10;99.90
63802;DHT22;49949;43.060;25.624;2023-07-24T03:13:23;19.10;99.90
63802;DHT22;49949;43.060;25.624;2023-07-24T03:15:57;19.10;99.90
63802;DHT22;49949;43.060;25.624;2023-07-24T03:18:23;19.00;99.90
63802;DHT22;49949;43.060;25.624;2023-07-24T03:20:49;19.10;99.90
63802;DHT22;49949;43.060;25.624;2023-07-24T03:23:14;19.10;99.90
63802;DHT22;49949;43.060;25.624;2023-07-24T03:25:40;19.10;99.90
63802;DHT22;49949;43.060;25.624;2023-07-24T03:28:06;19.10;99.90
63802;DHT22;49949;43.060;25.624;2023-07-24T03:30:32;19.10;99.90
63802;DHT22;49949;43.060;25.624;2023-07-24T03:32:58;19.10;99.90
63802;DHT22;49949;43.060;25.624;2023-07-24T03:35:24;19.20;99.90
63802;DHT22;49949;43.060;25.624;2023-07-24T03:37:49;19.20;99.90
63802;DHT22;49949;43.060;25.624;2023-07-24T03:40:15;19.30;99.90
63802;DHT22;49949;43.060;25.624;2023-07-24T03:42:41;19.60;99.90
63802;DHT22;49949;43.060;25.624;2023-07-24T03:45:07;19.90;99.90
63802;DHT22;49949;43.060;25.624;2023-07-24T03:47:33;20.20;99.90
63802;DHT22;49949;43.060;25.624;2023-07-24T03:49:59;20.50;99.90
63802;DHT22;49949;43.060;25.624;2023-07-24T03:52:25;20.70;99.90
63802;DHT22;49949;43.060;25.624;2023-07-24T03:54:52;21.00;99.90
63802;DHT22;49949;43.060;25.624;2023-07-24T03:57:18;21.10;99.90
63802;DHT22;49949;43.060;25.624;2023-07-24T03:59:44;21.20;99.90
63802;DHT22;49949;43.060;25.624;2023-07-24T04:02:10;21.20;99.90
63802;DHT22;49949;43.060;25.624;2023-07-24T04:04:37;21.40;99.90
63802;DHT22;49949;43.060;25.624;2023-07-24T04:07:02;21.70;99.90
63802;DHT22;49949;43.060;25.624;2023-07-24T04:09:28;22.10;99.90
63802;DHT22;49949;43.060;25.624;2023-07-24T04:11:54;22.40;99.90
63802;DHT22;49949;43.060;25.624;2023-07-24T04:14:20;22.60;99.90
63802;DHT22;49949;43.060;25.624;2023-07-24T04:16:45;23.00;99.90
63802;DHT22;49949;43.060;25.624;2023-07-24T04:19:11;23.30;99.90
63802;DHT22;49949;43.060;25.624;2023-07-24T04:21:37;23.70;99.90
63802;DHT22;49949;43.060;25.624;2023-07-24T04:24:03;24.00;99.90
63802;DHT22;49949;43.060;25.624;2023-07-24T04:26:28;24.00;99.90
63802;DHT22;49949;43.060;25.624;2023-07-24T04:28:54;23.90;99.90
63802;DHT22;49949;43.060;25.624;2023-07-24T04:31:20;24.00;99.90
63802;DHT22;49949;43.060;25.624;2023-07-24T04:33:45;24.10;99.90
63802;DHT22;49949;43.060;25.624;2023-07-24T04:36:11;24.40;99.90
63802;DHT22;49949;43.060;25.624;2023-07-24T04:38:37;24.70;99.90
63802;DHT22;49949;43.060;25.624;2023-07-24T04:41:03;24.80;99.90
63802;DHT22;49949;43.060;25.624;2023-07-24T04:43:29;25.20;99.90
63802;DHT22;49949;43.060;25.624;2023-07-24T04:45:55;25.50;99.90
63802;DHT22;49949;43.060;25.624;2023-07-24T04:48:21;25.70;99.90
63802;DHT22;49949;43.060;25.624;2023-07-24T04:50:47;25.70;99.90
63802;DHT22;49949;43.060;25.624;2023-07-24T04:53:17;25.90;99.90
63802;DHT22;49949;43.060;25.624;2023-07-24T04:55:45;26.30;99.90
63802;DHT22;49949;43.060;25.624;2023-07-24T04:58:11;26.70;99.90
63802;DHT22;49949;43.060;25.624;2023-07-24T05:00:37;26.80;99.90
63802;DHT22;49949;43.060;25.624;2023-07-24T05:03:02;26.70;99.90
63802;DHT22;49949;43.060;25.624;2023-07-24T05:05:28;26.50;99.90
63802;DHT22;49949;43.060;25.624;2023-07-24T05:07:54;26.40;99.90
63802;DHT22;49949;43.060;25.624;2023-07-24T05:10:19;26.60;99.90
63802;DHT22;49949;43.060;25.624;2023-07-24T05:12:45;26.60;99.90
63802;DHT22;49949;43.060;25.624;2023-07-24T05:15:11;26.80;99.90
63802;DHT22;49949;43.060;25.624;2023-07-24T05:17:36;26.70;99.90
63802;DHT22;49949;43.060;25.624;2023-07-24T05:20:02;26.60;99.90
63802;DHT22;49949;43.060;25.624;2023-07-24T05:22:28;26.40;99.90
63802;DHT22;49949;43.060;25.624;2023-07-24T05:24:54;26.40;99.90
63802;DHT22;49949;43.060;25.624;2023-07-24T05:27:20;26.60;99.90
63802;DHT22;49949;43.060;25.624;2023-07-24T05:29:45;26.80;99.90
63802;DHT22;49949;43.060;25.624;2023-07-24T05:32:11;26.80;99.90
63802;DHT22;49949;43.060;25.624;2023-07-24T05:34:37;26.70;99.90
63802;DHT22;49949;43.060;25.624;2023-07-24T05:37:02;26.80;99.90
63802;DHT22;49949;43.060;25.624;2023-07-24T05:39:29;27.10;99.90
63802;DHT22;49949;43.060;25.624;2023-07-24T05:41:55;27.00;99.90
63802;DHT22;49949;43.060;25.624;2023-07-24T05:44:21;26.90;99.90
63802;DHT22;49949;43.060;25.624;2023-07-24T05:46:46;26.80;99.90
63802;DHT22;49949;43.060;25.624;2023-07-24T05:49:12;26.80;99.90
63802;DHT22;49949;43.060;25.624;2023-07-24T05:51:38;27.00;99.90
63802;DHT22;49949;43.060;25.624;2023-07-24T05:54:04;27.00;99.90
63802;DHT22;49949;43.060;25.624;2023-07-24T05:56:29;27.20;99.90
63802;DHT22;49949;43.060;25.624;2023-07-24T05:58:55;27.50;99.90
63802;DHT22;49949;43.060;25.624;2023-07-24T06:01:21;27.70;99.90
63802;DHT22;49949;43.060;25.624;2023-07-24T06:03:46;27.60;99.00
63802;DHT22;49949;43.060;25.624;2023-07-24T06:06:12;27.50;99.90
63802;DHT22;49949;43.060;25.624;2023-07-24T06:08:38;27.90;99.40
63802;DHT22;49949;43.060;25.624;2023-07-24T06:11:03;28.30;97.20
63802;DHT22;49949;43.060;25.624;2023-07-24T06:13:29;28.40;97.90
63802;DHT22;49949;43.060;25.624;2023-07-24T06:15:55;28.70;96.40
63802;DHT22;49949;43.060;25.624;2023-07-24T06:18:20;28.70;97.60
63802;DHT22;49949;43.060;25.624;2023-07-24T06:20:47;28.60;96.90
63802;DHT22;49949;43.060;25.624;2023-07-24T06:23:17;28.20;98.30
63802;DHT22;49949;43.060;25.624;2023-07-24T06:25:43;27.70;99.70
63802;DHT22;49949;43.060;25.624;2023-07-24T06:28:09;27.80;99.50
63802;DHT22;49949;43.060;25.624;2023-07-24T06:30:34;27.90;99.60
63802;DHT22;49949;43.060;25.624;2023-07-24T06:33:00;28.10;98.60
63802;DHT22;49949;43.060;25.624;2023-07-24T06:35:26;28.20;99.90
63802;DHT22;49949;43.060;25.624;2023-07-24T06:37:51;28.00;99.70
63802;DHT22;49949;43.060;25.624;2023-07-24T06:40:17;27.80;99.70
63802;DHT22;49949;43.060;25.624;2023-07-24T06:42:44;27.80;98.30
63802;DHT22;49949;43.060;25.624;2023-07-24T06:45:10;27.80;98.80
63802;DHT22;49949;43.060;25.624;2023-07-24T06:47:36;28.10;99.20
63802;DHT22;49949;43.060;25.624;2023-07-24T06:50:02;28.30;98.10
63802;DHT22;49949;43.060;25.624;2023-07-24T06:52:28;28.30;97.70
63802;DHT22;49949;43.060;25.624;2023-07-24T06:54:53;28.40;98.30
63802;DHT22;49949;43.060;25.624;2023-07-24T06:57:19;28.60;97.90
63802;DHT22;49949;43.060;25.624;2023-07-24T06:59:45;29.00;98.00
63802;DHT22;49949;43.060;25.624;2023-07-24T07:02:10;29.40;95.80
63802;DHT22;49949;43.060;25.624;2023-07-24T07:04:36;29.80;94.40
63802;DHT22;49949;43.060;25.624;2023-07-24T07:07:02;29.90;93.00
63802;DHT22;49949;43.060;25.624;2023-07-24T07:09:28;30.00;90.90
63802;DHT22;49949;43.060;25.624;2023-07-24T07:11:54;29.90;90.00
63802;DHT22;49949;43.060;25.624;2023-07-24T07:14:19;29.70;92.40
63802;DHT22;49949;43.060;25.624;2023-07-24T07:16:45;29.60;90.30
63802;DHT22;49949;43.060;25.624;2023-07-24T07:19:13;29.70;91.80
63802;DHT22;49949;43.060;25.624;2023-07-24T07:21:38;30.00;90.90
63802;DHT22;49949;43.060;25.624;2023-07-24T07:24:04;30.10;91.20
63802;DHT22;49949;43.060;25.624;2023-07-24T07:26:30;30.30;89.00
63802;DHT22;49949;43.060;25.624;2023-07-24T07:28:56;30.20;88.40
63802;DHT22;49949;43.060;25.624;2023-07-24T07:31:21;30.20;89.40
63802;DHT22;49949;43.060;25.624;2023-07-24T07:33:47;30.40;87.40
63802;DHT22;49949;43.060;25.624;2023-07-24T07:36:14;30.60;87.60
63802;DHT22;49949;43.060;25.624;2023-07-24T07:38:39;30.70;87.80
63802;DHT22;49949;43.060;25.624;2023-07-24T07:41:06;30.70;85.50
63802;DHT22;49949;43.060;25.624;2023-07-24T07:43:31;30.60;82.50
63802;DHT22;49949;43.060;25.624;2023-07-24T07:45:57;30.50;84.00
63802;DHT22;49949;43.060;25.624;2023-07-24T07:48:24;30.50;84.80
63802;DHT22;49949;43.060;25.624;2023-07-24T07:50:51;30.50;85.40
63802;DHT22;49949;43.060;25.624;2023-07-24T07:53:17;30.60;85.30
63802;DHT22;49949;43.060;25.624;2023-07-24T07:55:43;30.70;83.90
63802;DHT22;49949;43.060;25.624;2023-07-24T07:58:08;30.70;82.70
63802;DHT22;49949;43.060;25.624;2023-07-24T08:00:34;30.80;82.80
63802;DHT22;49949;43.060;25.624;2023-07-24T08:03:00;30.80;82.70
63802;DHT22;49949;43.060;25.624;2023-07-24T08:05:26;30.90;81.10
63802;DHT22;49949;43.060;25.624;2023-07-24T08:07:52;31.10;80.60
63802;DHT22;49949;43.060;25.624;2023-07-24T08:10:18;31.30;78.70
63802;DHT22;49949;43.060;25.624;2023-07-24T08:12:44;31.70;77.90
63802;DHT22;49949;43.060;25.624;2023-07-24T08:15:10;31.80;74.40
63802;DHT22;49949;43.060;25.624;2023-07-24T08:17:36;31.40;76.10
63802;DHT22;49949;43.060;25.624;2023-07-24T08:20:02;31.70;75.50
63802;DHT22;49949;43.060;25.624;2023-07-24T08:22:28;31.80;73.20
63802;DHT22;49949;43.060;25.624;2023-07-24T08:24:54;32.20;73.00
63802;DHT22;49949;43.060;25.624;2023-07-24T08:27:19;32.60;71.30
63802;DHT22;49949;43.060;25.624;2023-07-24T08:29:45;32.90;71.10
63802;DHT22;49949;43.060;25.624;2023-07-24T08:32:11;33.30;70.00
63802;DHT22;49949;43.060;25.624;2023-07-24T08:34:37;33.50;68.80
63802;DHT22;49949;43.060;25.624;2023-07-24T08:37:02;33.70;68.20
63802;DHT22;49949;43.060;25.624;2023-07-24T08:39:28;33.90;67.90
63802;DHT22;49949;43.060;25.624;2023-07-24T08:41:54;33.90;66.60
63802;DHT22;49949;43.060;25.624;2023-07-24T08:44:20;34.00;68.40
63802;DHT22;49949;43.060;25.624;2023-07-24T08:46:46;34.30;66.70
63802;DHT22;49949;43.060;25.624;2023-07-24T08:49:13;34.60;66.80
63802;DHT22;49949;43.060;25.624;2023-07-24T08:51:44;34.90;64.80
63802;DHT22;49949;43.060;25.624;2023-07-24T08:54:11;34.90;61.80
63802;DHT22;49949;43.060;25.624;2023-07-24T08:56:37;34.80;60.40
63802;DHT22;49949;43.060;25.624;2023-07-24T08:59:05;35.00;59.50
63802;DHT22;49949;43.060;25.624;2023-07-24T09:01:31;35.20;58.60
63802;DHT22;49949;43.060;25.624;2023-07-24T09:03:57;35.40;57.80
63802;DHT22;49949;43.060;25.624;2023-07-24T09:06:23;35.30;60.50
63802;DHT22;49949;43.060;25.624;2023-07-24T09:08:48;34.60;61.40
63802;DHT22;49949;43.060;25.624;2023-07-24T09:11:14;34.60;60.40
63802;DHT22;49949;43.060;25.624;2023-07-24T09:13:43;34.10;61.40
63802;DHT22;49949;43.060;25.624;2023-07-24T09:16:20;33.80;62.40
63802;DHT22;49949;43.060;25.624;2023-07-24T09:18:46;33.90;62.90
63802;DHT22;49949;43.060;25.624;2023-07-24T09:21:11;34.30;61.60
63802;DHT22;49949;43.060;25.624;2023-07-24T09:23:37;34.40;61.30
63802;DHT22;49949;43.060;25.624;2023-07-24T09:26:07;34.30;60.20
63802;DHT22;49949;43.060;25.624;2023-07-24T09:28:33;34.00;61.30
63802;DHT22;49949;43.060;25.624;2023-07-24T09:31:00;34.00;63.00
63802;DHT22;49949;43.060;25.624;2023-07-24T09:33:38;34.10;61.40
63802;DHT22;49949;43.060;25.624;2023-07-24T09:36:05;34.20;61.30
63802;DHT22;49949;43.060;25.624;2023-07-24T09:38:32;34.80;60.30
63802;DHT22;49949;43.060;25.624;2023-07-24T09:41:01;35.40;59.10
63802;DHT22;49949;43.060;25.624;2023-07-24T09:43:28;35.80;57.20
63802;DHT22;49949;43.060;25.624;2023-07-24T09:45:54;35.80;57.30
63802;DHT22;49949;43.060;25.624;2023-07-24T09:48:22;35.90;57.30
63802;DHT22;49949;43.060;25.624;2023-07-24T09:50:52;36.30;55.50
63802;DHT22;49949;43.060;25.624;2023-07-24T09:53:32;36.50;55.00
63802;DHT22;49949;43.060;25.624;2023-07-24T09:56:03;36.60;53.80
63802;DHT22;49949;43.060;25.624;2023-07-24T09:58:32;36.30;54.60
63802;DHT22;49949;43.060;25.624;2023-07-24T10:00:58;36.00;53.50
63802;DHT22;49949;43.060;25.624;2023-07-24T10:03:25;35.90;52.00
63802;DHT22;49949;43.060;25.624;2023-07-24T10:05:52;35.90;48.90
63802;DHT22;49949;43.060;25.624;2023-07-24T10:08:22;35.70;51.40
63802;DHT22;49949;43.060;25.624;2023-07-24T10:10:48;35.80;52.10
63802;DHT22;49949;43.060;25.624;2023-07-24T10:13:17;35.80;50.10
63802;DHT22;49949;43.060;25.624;2023-07-24T10:15:46;35.80;50.90
63802;DHT22;49949;43.060;25.624;2023-07-24T10:18:12;36.00;51.20
63802;DHT22;49949;43.060;25.624;2023-07-24T10:20:41;36.40;50.10
63802;DHT22;49949;43.060;25.624;2023-07-24T10:23:09;36.40;48.50
63802;DHT22;49949;43.060;25.624;2023-07-24T10:25:39;36.50;47.60
63802;DHT22;49949;43.060;25.624;2023-07-24T10:28:10;36.70;48.10
63802;DHT22;49949;43.060;25.624;2023-07-24T10:30:40;36.60;46.20
63802;DHT22;49949;43.060;25.624;2023-07-24T10:33:17;36.60;49.10
63802;DHT22;49949;43.060;25.624;2023-07-24T10:35:45;36.50;47.50
63802;DHT22;49949;43.060;25.624;2023-07-24T10:38:13;36.30;49.20
63802;DHT22;49949;43.060;25.624;2023-07-24T10:40:40;36.10;49.50
63802;DHT22;49949;43.060;25.624;2023-07-24T10:43:07;35.90;49.60
63802;DHT22;49949;43.060;25.624;2023-07-24T10:45:46;35.80;48.90
63802;DHT22;49949;43.060;25.624;2023-07-24T10:48:13;35.80;49.50
63802;DHT22;49949;43.060;25.624;2023-07-24T10:50:43;35.70;49.50
63802;DHT22;49949;43.060;25.624;2023-07-24T10:53:11;35.80;48.90
63802;DHT22;49949;43.060;25.624;2023-07-24T10:55:37;36.00;46.60
63802;DHT22;49949;43.060;25.624;2023-07-24T10:58:03;35.80;43.50
63802;DHT22;49949;43.060;25.624;2023-07-24T11:00:29;35.40;44.00
63802;DHT22;49949;43.060;25.624;2023-07-24T11:02:55;35.40;47.10
63802;DHT22;49949;43.060;25.624;2023-07-24T11:05:24;35.50;47.50
63802;DHT22;49949;43.060;25.624;2023-07-24T11:07:50;35.50;46.00
63802;DHT22;49949;43.060;25.624;2023-07-24T11:10:20;35.30;46.70
63802;DHT22;49949;43.060;25.624;2023-07-24T11:12:46;35.00;47.70
63802;DHT22;49949;43.060;25.624;2023-07-24T11:15:13;34.90;48.00
63802;DHT22;49949;43.060;25.624;2023-07-24T11:17:41;35.10;45.90
63802;DHT22;49949;43.060;25.624;2023-07-24T11:20:11;35.50;44.10
63802;DHT22;49949;43.060;25.624;2023-07-24T11:22:41;35.50;43.70
63802;DHT22;49949;43.060;25.624;2023-07-24T11:25:08;35.40;44.90
63802;DHT22;49949;43.060;25.624;2023-07-24T11:27:41;35.60;44.70
63802;DHT22;49949;43.060;25.624;2023-07-24T11:30:10;35.70;44.00
63802;DHT22;49949;43.060;25.624;2023-07-24T11:32:38;35.80;43.40
63802;DHT22;49949;43.060;25.624;2023-07-24T11:35:05;35.80;43.90
63802;DHT22;49949;43.060;25.624;2023-07-24T11:37:31;35.80;44.10
63802;DHT22;49949;43.060;25.624;2023-07-24T11:40:00;36.00;43.70
63802;DHT22;49949;43.060;25.624;2023-07-24T11:42:39;36.10;44.00
63802;DHT22;49949;43.060;25.624;2023-07-24T11:45:05;36.30;43.60
63802;DHT22;49949;43.060;25.624;2023-07-24T11:47:31;36.40;42.30
63802;DHT22;49949;43.060;25.624;2023-07-24T11:50:01;36.20;43.70
63802;DHT22;49949;43.060;25.624;2023-07-24T11:52:44;36.10;44.40
63802;DHT22;49949;43.060;25.624;2023-07-24T11:55:15;36.20;43.40
63802;DHT22;49949;43.060;25.624;2023-07-24T11:57:41;36.30;44.40
63802;DHT22;49949;43.060;25.624;2023-07-24T12:00:19;36.40;44.40
63802;DHT22;49949;43.060;25.624;2023-07-24T12:02:45;36.60;43.10
63802;DHT22;49949;43.060;25.624;2023-07-24T12:05:11;36.60;43.00
63802;DHT22;49949;43.060;25.624;2023-07-24T12:07:37;36.60;42.70
63802;DHT22;49949;43.060;25.624;2023-07-24T12:10:04;36.60;42.90
63802;DHT22;49949;43.060;25.624;2023-07-24T12:12:44;36.50;45.50
63802;DHT22;49949;43.060;25.624;2023-07-24T12:15:10;36.10;42.20
63802;DHT22;49949;43.060;25.624;2023-07-24T12:17:36;35.80;42.70
63802;DHT22;49949;43.060;25.624;2023-07-24T12:20:03;35.70;46.10
63802;DHT22;49949;43.060;25.624;2023-07-24T12:22:31;35.40;47.60
63802;DHT22;49949;43.060;25.624;2023-07-24T12:24:57;35.10;44.00
63802;DHT22;49949;43.060;25.624;2023-07-24T12:27:24;35.10;46.20
63802;DHT22;49949;43.060;25.624;2023-07-24T12:29:53;34.90;47.00
63802;DHT22;49949;43.060;25.624;2023-07-24T12:32:19;34.90;47.00
63802;DHT22;49949;43.060;25.624;2023-07-24T12:34:49;34.90;44.10
63802;DHT22;49949;43.060;25.624;2023-07-24T12:37:16;34.80;46.90
63802;DHT22;49949;43.060;25.624;2023-07-24T12:39:42;35.10;46.90
63802;DHT22;49949;43.060;25.624;2023-07-24T12:42:08;35.30;46.40
63802;DHT22;49949;43.060;25.624;2023-07-24T12:44:34;35.50;45.40
63802;DHT22;49949;43.060;25.624;2023-07-24T12:47:00;35.70;46.20
63802;DHT22;49949;43.060;25.624;2023-07-24T12:49:25;35.90;45.90
63802;DHT22;49949;43.060;25.624;2023-07-24T12:51:51;36.10;44.90
63802;DHT22;49949;43.060;25.624;2023-07-24T12:54:17;36.20;44.70
63802;DHT22;49949;43.060;25.624;2023-07-24T12:56:46;36.30;44.70
63802;DHT22;49949;43.060;25.624;2023-07-24T12:59:11;36.40;44.20
63802;DHT22;49949;43.060;25.624;2023-07-24T13:01:37;36.50;43.70
63802;DHT22;49949;43.060;25.624;2023-07-24T13:04:03;36.60;47.70
63802;DHT22;49949;43.060;25.624;2023-07-24T13:06:29;36.60;44.90
63802;DHT22;49949;43.060;25.624;2023-07-24T13:08:54;36.60;44.50
63802;DHT22;49949;43.060;25.624;2023-07-24T13:11:20;36.60;43.60
63802;DHT22;49949;43.060;25.624;2023-07-24T13:13:46;36.60;43.30
63802;DHT22;49949;43.060;25.624;2023-07-24T13:16:12;36.70;42.90
63802;DHT22;49949;43.060;25.624;2023-07-24T13:18:38;36.70;43.00
63802;DHT22;49949;43.060;25.624;2023-07-24T13:21:04;36.80;43.30
63802;DHT22;49949;43.060;25.624;2023-07-24T13:23:31;36.70;42.70
63802;DHT22;49949;43.060;25.624;2023-07-24T13:25:57;36.70;44.50
63802;DHT22;49949;43.060;25.624;2023-07-24T13:28:23;36.70;43.50
63802;DHT22;49949;43.060;25.624;2023-07-24T13:30:48;36.70;43.30
63802;DHT22;49949;43.060;25.624;2023-07-24T13:33:14;36.50;45.20
63802;DHT22;49949;43.060;25.624;2023-07-24T13:35:40;36.70;43.00
63802;DHT22;49949;43.060;25.624;2023-07-24T13:38:05;36.70;43.00
63802;DHT22;49949;43.060;25.624;2023-07-24T13:40:34;36.90;42.70
63802;DHT22;49949;43.060;25.624;2023-07-24T13:42:59;37.00;43.20
63802;DHT22;49949;43.060;25.624;2023-07-24T13:45:25;36.80;41.50
63802;DHT22;49949;43.060;25.624;2023-07-24T13:47:51;36.70;42.90
63802;DHT22;49949;43.060;25.624;2023-07-24T13:50:17;36.70;43.90
63802;DHT22;49949;43.060;25.624;2023-07-24T13:52:42;36.90;42.20
63802;DHT22;49949;43.060;25.624;2023-07-24T13:55:08;37.00;41.90
63802;DHT22;49949;43.060;25.624;2023-07-24T13:57:34;37.10;41.60
63802;DHT22;49949;43.060;25.624;2023-07-24T13:59:59;37.00;41.10
63802;DHT22;49949;43.060;25.624;2023-07-24T14:02:25;37.00;42.10
63802;DHT22;49949;43.060;25.624;2023-07-24T14:04:52;37.00;42.90
63802;DHT22;49949;43.060;25.624;2023-07-24T14:07:18;37.10;42.00
63802;DHT22;49949;43.060;25.624;2023-07-24T14:09:44;37.20;41.70
63802;DHT22;49949;43.060;25.624;2023-07-24T14:12:11;37.30;42.10
63802;DHT22;49949;43.060;25.624;2023-07-24T14:14:36;37.20;42.30
63802;DHT22;49949;43.060;25.624;2023-07-24T14:17:02;37.20;41.60
63802;DHT22;49949;43.060;25.624;2023-07-24T14:19:28;37.20;41.80
63802;DHT22;49949;43.060;25.624;2023-07-24T14:21:53;37.00;41.90
63802;DHT22;49949;43.060;25.624;2023-07-24T14:24:19;37.00;42.50
63802;DHT22;49949;43.060;25.624;2023-07-24T14:26:45;37.00;42.50
63802;DHT22;49949;43.060;25.624;2023-07-24T14:29:11;37.00;43.00
63802;DHT22;49949;43.060;25.624;2023-07-24T14:31:37;37.00;41.60
63802;DHT22;49949;43.060;25.624;2023-07-24T14:34:03;36.90;42.70
63802;DHT22;49949;43.060;25.624;2023-07-24T14:36:29;36.90;41.80
63802;DHT22;49949;43.060;25.624;2023-07-24T14:39:03;36.90;46.50
63802;DHT22;49949;43.060;25.624;2023-07-24T14:41:29;36.90;44.70
63802;DHT22;49949;43.060;25.624;2023-07-24T14:43:55;36.90;44.40
63802;DHT22;49949;43.060;25.624;2023-07-24T14:46:20;36.90;43.00
63802;DHT22;49949;43.060;25.624;2023-07-24T14:48:46;36.90;43.00
63802;DHT22;49949;43.060;25.624;2023-07-24T14:51:12;36.90;42.90
63802;DHT22;49949;43.060;25.624;2023-07-24T14:53:37;36.80;42.40
63802;DHT22;49949;43.060;25.624;2023-07-24T14:56:04;36.90;42.70
63802;DHT22;49949;43.060;25.624;2023-07-24T14:58:30;36.90;41.80
63802;DHT22;49949;43.060;25.624;2023-07-24T15:00:55;36.90;46.90
63802;DHT22;49949;43.060;25.624;2023-07-24T15:03:22;36.90;44.10
63802;DHT22;49949;43.060;25.624;2023-07-24T15:05:48;36.90;43.30
63802;DHT22;49949;43.060;25.624;2023-07-24T15:08:13;37.00;41.20
63802;DHT22;49949;43.060;25.624;2023-07-24T15:10:39;36.90;42.30
63802;DHT22;49949;43.060;25.624;2023-07-24T15:13:05;36.90;41.10
63802;DHT22;49949;43.060;25.624;2023-07-24T15:15:30;36.80;44.90
63802;DHT22;49949;43.060;25.624;2023-07-24T15:17:58;36.70;46.50